createdAt,value
2024-02-02T00:02:19.612Z,-0.62
2024-02-02T00:04:46.284Z,-0.51
2024-02-02T00:07:12.999Z,-0.51
2024-02-02T00:09:39.908Z,-0.58
2024-02-02T00:12:11.977Z,-0.59
2024-02-02T00:14:39.191Z,-0.63
2024-02-02T00:17:08.695Z,-0.59
2024-02-02T00:19:35.644Z,-0.66
2024-02-02T00:22:02.396Z,-0.74
2024-02-02T00:24:29.155Z,-0.72
2024-02-02T00:26:55.844Z,-0.73
2024-02-02T00:29:22.472Z,-0.70
2024-02-02T00:31:49.173Z,-0.73
2024-02-02T00:34:16.063Z,-0.77
2024-02-02T00:36:42.918Z,-0.73
2024-02-02T00:39:09.677Z,-0.85
2024-02-02T00:41:36.398Z,-0.78
2024-02-02T00:44:04.574Z,-0.98
2024-02-02T00:46:31.367Z,-0.98
2024-02-02T00:48:58.199Z,-0.93
2024-02-02T00:51:25.483Z,-0.81
2024-02-02T00:53:52.285Z,-0.96
2024-02-02T00:56:18.980Z,-1.03
2024-02-02T00:58:45.638Z,-1.05
2024-02-02T01:01:12.345Z,-0.95
2024-02-02T01:03:39.245Z,-0.94
2024-02-02T01:06:06.186Z,-0.99
2024-02-02T01:08:33.029Z,-0.86
2024-02-02T01:11:01.833Z,-0.77
2024-02-02T01:13:30.293Z,-0.74
2024-02-02T01:15:57.732Z,-0.69
2024-02-02T01:18:24.513Z,-0.73
2024-02-02T01:20:51.489Z,-0.78
2024-02-02T01:23:18.288Z,-0.69
2024-02-02T01:25:44.944Z,-0.70
2024-02-02T01:28:11.859Z,-0.67
2024-02-02T01:30:38.945Z,-0.56
2024-02-02T01:33:06.155Z,-0.49
2024-02-02T01:35:32.945Z,-0.48
2024-02-02T01:37:59.577Z,-0.48
2024-02-02T01:40:26.288Z,-0.75
2024-02-02T01:42:52.939Z,-0.98
2024-02-02T01:45:19.719Z,-0.93
2024-02-02T01:47:47.052Z,-0.87
2024-02-02T01:50:13.862Z,-0.86
2024-02-02T01:52:40.798Z,-0.80
2024-02-02T01:55:08.562Z,-0.73
2024-02-02T01:57:35.279Z,-0.77
2024-02-02T02:00:03.435Z,-0.70
2024-02-02T02:02:30.394Z,-0.54
2024-02-02T02:04:57.072Z,-0.52
2024-02-02T02:07:23.825Z,-0.40
2024-02-02T02:09:50.559Z,-0.45
2024-02-02T02:12:17.628Z,-0.51
2024-02-02T02:14:44.410Z,-0.41
2024-02-02T02:17:11.090Z,-0.34
2024-02-02T02:19:39.336Z,-0.37
2024-02-02T02:22:06.070Z,-0.35
2024-02-02T02:24:32.903Z,-0.44
2024-02-02T02:26:59.746Z,-0.67
2024-02-02T02:29:26.431Z,-0.67
2024-02-02T02:31:57.143Z,-0.61
2024-02-02T02:34:28.453Z,-0.57
2024-02-02T02:36:55.829Z,-0.50
2024-02-02T02:39:22.724Z,-0.42
2024-02-02T02:41:49.935Z,-0.52
2024-02-02T02:44:16.443Z,-0.54
2024-02-02T02:46:43.898Z,-0.41
2024-02-02T02:49:10.886Z,-0.42
2024-02-02T02:51:37.684Z,-0.50
2024-02-02T02:54:04.562Z,-0.60
2024-02-02T02:56:31.319Z,-0.56
2024-02-02T02:58:58.101Z,-0.49
2024-02-02T03:01:24.864Z,-0.50
2024-02-02T03:03:51.661Z,-0.82
2024-02-02T03:06:18.337Z,-0.81
2024-02-02T03:08:45.553Z,-0.77
2024-02-02T03:11:12.597Z,-0.92
2024-02-02T03:13:39.241Z,-0.92
2024-02-02T03:16:06.611Z,-0.91
2024-02-02T03:18:33.415Z,-0.89
2024-02-02T03:21:00.275Z,-0.86
2024-02-02T03:23:27.175Z,-0.80
2024-02-02T03:25:53.838Z,-0.85
2024-02-02T03:28:20.426Z,-0.67
2024-02-02T03:30:47.161Z,-0.53
2024-02-02T03:33:13.940Z,-0.51
2024-02-02T03:35:40.979Z,-0.39
2024-02-02T03:38:07.738Z,-0.43
2024-02-02T03:40:34.445Z,-0.42
2024-02-02T03:43:01.248Z,-0.32
2024-02-02T03:45:27.912Z,-0.33
2024-02-02T03:47:54.741Z,-0.29
2024-02-02T03:50:21.550Z,-0.46
2024-02-02T03:52:48.920Z,-0.37
2024-02-02T03:55:15.870Z,-0.30
2024-02-02T03:57:42.688Z,-0.23
2024-02-02T04:00:11.236Z,-0.33
2024-02-02T04:02:38.106Z,-0.48
2024-02-02T04:05:06.531Z,-0.37
2024-02-02T04:07:33.277Z,-0.21
2024-02-02T04:09:59.934Z,-0.10
2024-02-02T04:12:26.625Z,-0.04
2024-02-02T04:14:53.484Z,-0.06
2024-02-02T04:17:20.135Z,-0.06
2024-02-02T04:19:46.839Z,-0.14
2024-02-02T04:22:13.540Z,-0.11
2024-02-02T04:24:40.231Z,0.02
2024-02-02T04:27:07.097Z,0.03
2024-02-02T04:29:34.026Z,0.08
2024-02-02T04:32:00.702Z,0.15
2024-02-02T04:34:27.811Z,0.26
2024-02-02T04:36:54.462Z,0.21
2024-02-02T04:39:21.115Z,0.34
2024-02-02T04:41:47.942Z,0.33
2024-02-02T04:44:14.641Z,0.18
2024-02-02T04:46:41.256Z,0.22
2024-02-02T04:49:08.206Z,0.21
2024-02-02T04:51:35.112Z,0.15
2024-02-02T04:54:01.854Z,0.34
2024-02-02T04:56:28.704Z,0.36
2024-02-02T04:58:55.381Z,0.45
2024-02-02T05:01:22.238Z,0.52
2024-02-02T05:03:49.101Z,0.55
2024-02-02T05:06:17.999Z,0.73
2024-02-02T05:08:47.822Z,0.58
2024-02-02T05:11:14.666Z,0.26
2024-02-02T05:13:41.282Z,0.32
2024-02-02T05:16:09.085Z,0.32
2024-02-02T05:18:36.841Z,0.40
2024-02-02T05:21:03.820Z,0.47
2024-02-02T05:23:30.512Z,0.57
2024-02-02T05:25:57.300Z,0.66
2024-02-02T05:28:23.999Z,0.72
2024-02-02T05:30:50.991Z,0.81
2024-02-02T05:33:17.901Z,1.00
2024-02-02T05:35:44.691Z,1.16
2024-02-02T05:38:11.285Z,1.29
2024-02-02T05:40:38.121Z,1.47
2024-02-02T05:43:05.946Z,1.64
2024-02-02T05:45:32.751Z,1.81
2024-02-02T05:47:59.597Z,1.86
2024-02-02T05:50:26.262Z,1.99
2024-02-02T05:52:52.897Z,2.05
2024-02-02T05:55:19.652Z,2.24
2024-02-02T05:57:46.291Z,2.36
2024-02-02T06:00:13.864Z,2.48
2024-02-02T06:02:40.562Z,2.66
2024-02-02T06:05:07.336Z,2.81
2024-02-02T06:07:34.107Z,2.91
2024-02-02T06:10:00.762Z,2.93
2024-02-02T06:12:27.425Z,2.94
2024-02-02T06:14:54.208Z,3.07
2024-02-02T06:17:20.844Z,3.10
2024-02-02T06:19:47.846Z,3.18
2024-02-02T06:22:14.584Z,3.17
2024-02-02T06:24:41.368Z,3.19
2024-02-02T06:27:08.233Z,3.30
2024-02-02T06:29:35.738Z,3.30
2024-02-02T06:32:02.663Z,3.34
2024-02-02T06:34:29.471Z,3.43
2024-02-02T06:36:56.159Z,3.54
2024-02-02T06:39:22.870Z,3.62
2024-02-02T06:41:49.572Z,3.63
2024-02-02T06:44:16.338Z,3.77
2024-02-02T06:46:43.597Z,3.86
2024-02-02T06:49:10.439Z,4.18
2024-02-02T06:51:37.195Z,4.27
2024-02-02T06:54:04.306Z,4.38
2024-02-02T06:56:33.774Z,4.42
2024-02-02T06:59:00.599Z,4.40
2024-02-02T07:01:28.502Z,4.44
2024-02-02T07:03:56.449Z,4.43
2024-02-02T07:06:23.552Z,4.41
2024-02-02T07:08:51.252Z,4.42
2024-02-02T07:11:40.870Z,4.46
2024-02-02T07:14:10.916Z,4.48
2024-02-02T07:16:38.066Z,4.51
2024-02-02T07:19:05.433Z,4.51
2024-02-02T07:21:34.855Z,4.52
2024-02-02T07:24:04.212Z,4.62
2024-02-02T07:26:32.239Z,4.65
2024-02-02T07:28:59.773Z,4.80
2024-02-02T07:31:35.747Z,4.91
2024-02-02T07:34:41.207Z,4.88
2024-02-02T07:37:32.468Z,4.87
2024-02-02T07:40:00.798Z,4.99
2024-02-02T07:42:38.095Z,5.03
2024-02-02T07:45:11.939Z,5.12
2024-02-02T07:47:38.681Z,5.13
2024-02-02T07:50:05.641Z,5.23
2024-02-02T07:52:32.360Z,5.29
2024-02-02T07:54:59.113Z,5.37
2024-02-02T07:57:26.187Z,5.38
2024-02-02T07:59:52.931Z,5.43
2024-02-02T08:02:20.129Z,5.50
2024-02-02T08:04:47.107Z,5.48
2024-02-02T08:07:13.990Z,5.52
2024-02-02T08:09:40.875Z,5.51
2024-02-02T08:12:08.314Z,5.57
2024-02-02T08:14:36.355Z,5.57
2024-02-02T08:17:08.426Z,5.51
2024-02-02T08:19:37.771Z,5.58
2024-02-02T08:22:05.421Z,5.65
2024-02-02T08:24:32.303Z,5.66
2024-02-02T08:26:59.083Z,5.68
2024-02-02T08:29:26.004Z,5.65
2024-02-02T08:31:52.855Z,5.71
2024-02-02T08:34:19.836Z,5.75
2024-02-02T08:36:46.749Z,5.71
2024-02-02T08:39:15.029Z,5.75
2024-02-02T08:41:41.781Z,5.85
2024-02-02T08:44:22.293Z,5.81
2024-02-02T08:46:52.640Z,5.94
2024-02-02T08:49:38.886Z,5.90
2024-02-02T08:52:10.892Z,5.97
2024-02-02T08:54:39.137Z,6.04
2024-02-02T08:57:25.245Z,6.05
2024-02-02T08:59:54.294Z,6.06
2024-02-02T09:03:30.239Z,6.08
2024-02-02T09:05:57.186Z,6.10
2024-02-02T09:08:26.915Z,6.06
2024-02-02T09:11:16.254Z,6.14
2024-02-02T09:13:45.785Z,6.53
2024-02-02T09:16:20.475Z,6.90
2024-02-02T09:18:55.868Z,7.79
2024-02-02T09:21:32.470Z,7.65
2024-02-02T09:23:59.410Z,7.46
2024-02-02T09:26:41.453Z,7.52
2024-02-02T09:29:10.930Z,7.57
2024-02-02T09:31:39.154Z,7.63
2024-02-02T09:34:10.235Z,7.54
2024-02-02T09:36:40.942Z,7.56
2024-02-02T09:39:28.759Z,7.73
2024-02-02T09:42:17.912Z,7.92
2024-02-02T09:44:47.790Z,7.71
2024-02-02T09:47:35.372Z,7.70
2024-02-02T09:50:25.102Z,7.73
2024-02-02T09:53:11.383Z,8.06
2024-02-02T09:55:38.250Z,8.02
2024-02-02T09:58:31.022Z,7.85
2024-02-02T10:01:24.361Z,8.24
2024-02-02T10:04:12.863Z,8.55
2024-02-02T10:06:53.789Z,8.86
2024-02-02T10:09:43.639Z,9.16
2024-02-02T10:12:13.891Z,9.33
2024-02-02T10:15:10.502Z,9.43
2024-02-02T10:18:15.812Z,9.41
2024-02-02T10:20:49.074Z,9.07
2024-02-02T10:23:37.478Z,9.05
2024-02-02T10:26:04.464Z,9.11
2024-02-02T10:28:58.296Z,9.17
2024-02-02T10:32:00.379Z,9.03
2024-02-02T10:34:52.160Z,8.91
2024-02-02T10:37:42.006Z,8.82
2024-02-02T10:40:13.413Z,8.69
2024-02-02T10:43:04.528Z,8.48
2024-02-02T10:45:42.352Z,8.47
2024-02-02T10:48:24.617Z,8.45
2024-02-02T10:51:05.701Z,8.27
2024-02-02T10:54:01.670Z,8.22
2024-02-02T10:56:40.532Z,8.09
2024-02-02T10:59:31.734Z,8.13
2024-02-02T11:02:11.835Z,8.12
2024-02-02T11:05:06.567Z,8.10
2024-02-02T11:07:54.294Z,8.22
2024-02-02T11:10:30.442Z,8.24
2024-02-02T11:13:12.413Z,8.28
2024-02-02T11:15:46.543Z,8.30
2024-02-02T11:18:31.926Z,8.35
2024-02-02T11:21:18.968Z,8.53
2024-02-02T11:23:58.212Z,8.51
2024-02-02T11:26:32.138Z,8.41
2024-02-02T11:29:22.394Z,8.40
2024-02-02T11:31:55.954Z,8.32
2024-02-02T11:34:50.494Z,8.20
2024-02-02T11:37:34.065Z,8.33
2024-02-02T11:40:10.092Z,8.45
2024-02-02T11:42:38.414Z,8.48
2024-02-02T11:45:08.699Z,8.51
2024-02-02T11:47:47.538Z,8.38
2024-02-02T11:50:18.577Z,8.40
2024-02-02T11:52:53.007Z,8.37
2024-02-02T11:55:24.334Z,8.25
2024-02-02T11:57:56.516Z,8.09
2024-02-02T12:00:35.676Z,8.17
2024-02-02T12:03:44.020Z,8.05
2024-02-02T12:06:21.982Z,8.04
2024-02-02T12:09:05.908Z,8.07
2024-02-02T12:11:44.130Z,8.03
2024-02-02T12:14:22.654Z,7.99
2024-02-02T12:16:49.481Z,8.01
2024-02-02T12:19:17.148Z,8.01
2024-02-02T12:21:45.930Z,7.92
2024-02-02T12:24:14.150Z,7.96
2024-02-02T12:26:42.245Z,8.02
2024-02-02T12:29:09.830Z,8.06
2024-02-02T12:31:36.932Z,8.00
2024-02-02T12:34:04.124Z,8.02
2024-02-02T12:36:30.930Z,8.01
2024-02-02T12:39:07.525Z,7.81
2024-02-02T12:41:35.853Z,7.59
2024-02-02T12:44:03.187Z,7.77
2024-02-02T12:46:30.163Z,7.72
2024-02-02T12:48:57.306Z,7.75
2024-02-02T12:51:24.422Z,7.75
2024-02-02T12:53:51.463Z,7.72
2024-02-02T12:56:19.188Z,7.76
2024-02-02T12:58:46.300Z,7.79
2024-02-02T13:01:13.138Z,7.81
2024-02-02T13:03:44.375Z,7.88
2024-02-02T13:06:13.084Z,7.87
2024-02-02T13:08:42.251Z,7.53
2024-02-02T13:11:20.490Z,7.93
2024-02-02T13:13:47.662Z,7.91
2024-02-02T13:16:28.093Z,7.93
2024-02-02T13:18:55.138Z,8.02
2024-02-02T13:21:30.011Z,8.08
2024-02-02T13:23:58.221Z,8.06
2024-02-02T13:26:40.458Z,8.18
2024-02-02T13:29:09.356Z,8.14
2024-02-02T13:31:39.168Z,8.14
2024-02-02T13:34:06.792Z,8.07
2024-02-02T13:36:40.668Z,8.12
2024-02-02T13:39:07.725Z,8.09
2024-02-02T13:41:37.822Z,8.01
2024-02-02T13:44:09.376Z,7.99
2024-02-02T13:46:46.648Z,7.94
2024-02-02T13:49:33.226Z,7.97
2024-02-02T13:52:05.897Z,7.88
2024-02-02T13:54:34.555Z,7.89
2024-02-02T13:57:01.480Z,7.97
2024-02-02T13:59:28.424Z,7.85
2024-02-02T14:02:04.945Z,7.81
2024-02-02T14:04:31.973Z,7.64
2024-02-02T14:06:58.789Z,7.64
2024-02-02T14:09:25.736Z,7.64
2024-02-02T14:12:02.185Z,7.58
2024-02-02T14:14:29.698Z,7.55
2024-02-02T14:17:06.156Z,7.59
2024-02-02T14:19:33.634Z,7.51
2024-02-02T14:22:12.185Z,7.53
2024-02-02T14:24:49.628Z,7.32
2024-02-02T14:27:16.991Z,7.39
2024-02-02T14:29:44.757Z,7.38
2024-02-02T14:32:12.613Z,7.45
2024-02-02T14:34:39.726Z,7.44
2024-02-02T14:37:09.443Z,7.40
2024-02-02T14:39:36.346Z,7.31
2024-02-02T14:42:03.796Z,7.27
2024-02-02T14:44:30.673Z,7.12
2024-02-02T14:46:57.929Z,7.16
2024-02-02T14:49:27.076Z,7.09
2024-02-02T14:51:54.953Z,7.04
2024-02-02T14:54:22.390Z,7.07
2024-02-02T14:56:49.563Z,7.11
2024-02-02T14:59:22.282Z,6.94
2024-02-02T15:01:49.458Z,6.99
2024-02-02T15:04:17.174Z,6.95
2024-02-02T15:06:44.981Z,6.87
2024-02-02T15:09:15.328Z,6.81
2024-02-02T15:11:45.832Z,6.85
2024-02-02T15:14:13.636Z,6.84
2024-02-02T15:16:40.700Z,6.90
2024-02-02T15:19:07.540Z,6.89
2024-02-02T15:21:34.648Z,6.85
2024-02-02T15:24:02.417Z,6.73
2024-02-02T15:26:29.363Z,6.72
2024-02-02T15:28:56.110Z,6.67
2024-02-02T15:31:23.970Z,6.65
2024-02-02T15:33:50.896Z,6.66
2024-02-02T15:36:18.088Z,6.49
2024-02-02T15:39:05.748Z,6.56
2024-02-02T15:41:31.633Z,6.65
2024-02-02T15:43:58.392Z,6.64
2024-02-02T15:46:25.297Z,6.60
2024-02-02T15:48:52.780Z,6.56
2024-02-02T15:51:20.342Z,6.52
2024-02-02T15:53:47.933Z,6.55
2024-02-02T15:56:18.478Z,6.58
2024-02-02T15:58:45.329Z,6.60
2024-02-02T16:01:15.735Z,6.52
2024-02-02T16:03:43.436Z,6.56
2024-02-02T16:06:12.389Z,6.55
2024-02-02T16:08:39.658Z,6.56
2024-02-02T16:11:06.424Z,6.62
2024-02-02T16:13:33.128Z,6.47
2024-02-02T16:16:00.335Z,6.60
2024-02-02T16:18:27.559Z,6.59
2024-02-02T16:20:54.691Z,6.55
2024-02-02T16:23:21.510Z,6.51
2024-02-02T16:25:48.202Z,6.57
2024-02-02T16:28:14.929Z,6.51
2024-02-02T16:30:43.632Z,6.47
2024-02-02T16:33:10.817Z,6.48
2024-02-02T16:35:37.722Z,6.50
2024-02-02T16:38:04.942Z,6.49
2024-02-02T16:40:31.651Z,6.47
2024-02-02T16:42:58.409Z,6.34
2024-02-02T16:45:25.181Z,6.36
2024-02-02T16:47:54.204Z,6.39
2024-02-02T16:50:20.977Z,6.45
2024-02-02T16:52:47.896Z,6.41
2024-02-02T16:55:14.750Z,6.21
2024-02-02T16:57:41.819Z,6.31
2024-02-02T17:00:12.599Z,6.27
2024-02-02T17:02:39.670Z,6.24
2024-02-02T17:05:07.387Z,6.13
2024-02-02T17:07:34.361Z,6.21
2024-02-02T17:10:01.116Z,6.17
2024-02-02T17:12:28.046Z,6.22
2024-02-02T17:14:54.827Z,6.11
2024-02-02T17:17:21.617Z,6.10
2024-02-02T17:19:48.559Z,6.08
2024-02-02T17:22:15.274Z,6.14
2024-02-02T17:24:42.326Z,6.16
2024-02-02T17:27:09.409Z,6.17
2024-02-02T17:29:40.610Z,6.17
2024-02-02T17:32:07.770Z,6.17
2024-02-02T17:34:35.021Z,6.14
2024-02-02T17:37:01.634Z,6.21
2024-02-02T17:39:28.347Z,6.15
2024-02-02T17:41:55.484Z,6.12
2024-02-02T17:44:24.764Z,6.10
2024-02-02T17:46:53.934Z,6.17
2024-02-02T17:49:20.931Z,6.17
2024-02-02T17:51:47.898Z,6.21
2024-02-02T17:54:14.842Z,6.15
2024-02-02T17:56:41.540Z,6.20
2024-02-02T17:59:08.319Z,6.16
2024-02-02T18:01:35.348Z,6.13
2024-02-02T18:04:02.471Z,6.13
2024-02-02T18:06:29.371Z,6.16
2024-02-02T18:08:56.322Z,6.04
2024-02-02T18:11:23.104Z,6.09
2024-02-02T18:13:49.989Z,6.13
2024-02-02T18:16:16.866Z,6.12
2024-02-02T18:18:43.741Z,6.13
2024-02-02T18:21:10.925Z,6.11
2024-02-02T18:23:38.122Z,6.07
2024-02-02T18:26:05.412Z,6.14
2024-02-02T18:28:32.711Z,6.16
2024-02-02T18:30:59.405Z,6.08
2024-02-02T18:33:26.321Z,6.05
2024-02-02T18:35:53.309Z,5.98
2024-02-02T18:38:20.075Z,5.92
2024-02-02T18:40:51.253Z,5.81
2024-02-02T18:43:18.825Z,5.83
2024-02-02T18:45:45.808Z,5.88
2024-02-02T18:48:12.795Z,5.87
2024-02-02T18:50:39.815Z,5.88
2024-02-02T18:53:06.597Z,5.91
2024-02-02T18:55:33.583Z,5.89
2024-02-02T18:58:00.447Z,5.87
2024-02-02T19:00:27.598Z,5.88
2024-02-02T19:02:54.732Z,5.87
2024-02-02T19:05:22.104Z,5.91
2024-02-02T19:07:48.955Z,5.94
2024-02-02T19:10:17.428Z,5.81
2024-02-02T19:12:44.362Z,5.87
2024-02-02T19:15:11.293Z,5.85
2024-02-02T19:17:38.146Z,5.87
2024-02-02T19:20:05.289Z,5.70
2024-02-02T19:22:32.306Z,5.86
2024-02-02T19:24:59.823Z,5.83
2024-02-02T19:27:26.847Z,5.73
2024-02-02T19:29:53.661Z,5.67
2024-02-02T19:32:21.003Z,5.62
2024-02-02T19:34:48.326Z,5.63
2024-02-02T19:37:14.950Z,5.72
2024-02-02T19:39:41.953Z,5.70
2024-02-02T19:42:08.771Z,5.64
2024-02-02T19:44:35.722Z,5.61
2024-02-02T19:47:02.427Z,5.59
2024-02-02T19:49:29.320Z,5.55
2024-02-02T19:51:56.224Z,5.53
2024-02-02T19:54:23.212Z,5.48
2024-02-02T19:56:50.052Z,5.44
2024-02-02T19:59:16.852Z,5.46
2024-02-02T20:01:49.524Z,5.26
2024-02-02T20:04:16.681Z,5.40
2024-02-02T20:06:43.589Z,5.13
2024-02-02T20:09:10.779Z,5.33
2024-02-02T20:11:38.188Z,4.91
2024-02-02T20:14:05.121Z,5.12
2024-02-02T20:16:35.202Z,5.19
2024-02-02T20:19:02.015Z,5.19
2024-02-02T20:21:29.538Z,5.01
2024-02-02T20:23:56.634Z,5.04
2024-02-02T20:26:24.374Z,5.00
2024-02-02T20:28:52.747Z,4.84
2024-02-02T20:31:19.808Z,4.83
2024-02-02T20:33:46.726Z,4.88
2024-02-02T20:36:14.567Z,4.87
2024-02-02T20:38:43.110Z,4.83
2024-02-02T20:41:09.892Z,4.82
2024-02-02T20:43:36.692Z,4.83
2024-02-02T20:46:03.831Z,4.78
2024-02-02T20:48:30.736Z,4.81
2024-02-02T20:50:57.520Z,4.75
2024-02-02T20:53:24.263Z,4.69
2024-02-02T20:55:51.005Z,4.71
2024-02-02T20:58:17.823Z,4.63
2024-02-02T21:00:44.681Z,4.68
2024-02-02T21:03:12.090Z,4.65
2024-02-02T21:05:39.122Z,4.53
2024-02-02T21:08:06.253Z,4.54
2024-02-02T21:10:34.587Z,4.51
2024-02-02T21:13:01.279Z,4.51
2024-02-02T21:15:33.280Z,4.45
2024-02-02T21:18:07.290Z,4.38
2024-02-02T21:20:42.243Z,4.45
2024-02-02T21:23:09.405Z,4.47
2024-02-02T21:25:36.233Z,4.41
2024-02-02T21:28:08.332Z,4.43
2024-02-02T21:30:35.564Z,4.28
2024-02-02T21:33:02.304Z,4.39
2024-02-02T21:35:29.068Z,4.33
2024-02-02T21:37:55.807Z,4.18
2024-02-02T21:40:22.512Z,4.18
2024-02-02T21:42:49.331Z,4.12
2024-02-02T21:45:16.140Z,3.79
2024-02-02T21:47:43.614Z,4.17
2024-02-02T21:50:10.775Z,4.24
2024-02-02T21:52:40.750Z,4.25
2024-02-02T21:55:07.923Z,4.35
2024-02-02T21:57:34.730Z,4.46
2024-02-02T22:00:05.925Z,4.36
2024-02-02T22:02:32.739Z,4.52
2024-02-02T22:04:59.533Z,4.52
2024-02-02T22:07:26.733Z,4.62
2024-02-02T22:09:53.884Z,4.62
2024-02-02T22:12:20.685Z,4.62
2024-02-02T22:14:47.677Z,4.31
2024-02-02T22:17:16.166Z,4.64
2024-02-02T22:19:43.035Z,4.66
2024-02-02T22:22:10.410Z,4.70
2024-02-02T22:24:41.402Z,4.74
2024-02-02T22:27:10.232Z,4.59
2024-02-02T22:29:37.341Z,4.62
2024-02-02T22:32:04.768Z,4.53
2024-02-02T22:34:31.846Z,4.46
2024-02-02T22:36:58.739Z,4.39
2024-02-02T22:39:25.578Z,4.54
2024-02-02T22:41:52.348Z,4.54
2024-02-02T22:44:19.199Z,4.46
2024-02-02T22:46:45.933Z,4.42
2024-02-02T22:49:13.059Z,4.42
2024-02-02T22:51:50.230Z,4.39
2024-02-02T22:54:18.315Z,4.34
2024-02-02T22:56:47.851Z,4.27
2024-02-02T22:59:14.821Z,4.22
2024-02-02T23:01:41.525Z,4.15
2024-02-02T23:04:08.494Z,4.09
2024-02-02T23:06:35.516Z,4.00
2024-02-02T23:09:02.291Z,3.89
2024-02-02T23:11:31.111Z,3.81
2024-02-02T23:13:57.976Z,3.74
2024-02-02T23:16:24.877Z,3.69
2024-02-02T23:18:52.006Z,3.59
2024-02-02T23:21:19.056Z,3.37
2024-02-02T23:23:48.153Z,3.41
2024-02-02T23:26:14.964Z,3.34
2024-02-02T23:28:42.074Z,3.17
2024-02-02T23:31:09.547Z,3.16
2024-02-02T23:33:36.571Z,3.11
2024-02-02T23:36:03.869Z,2.93
2024-02-02T23:38:30.549Z,2.86
2024-02-02T23:40:57.659Z,2.71
2024-02-02T23:43:24.624Z,2.60
2024-02-02T23:45:52.020Z,2.56
2024-02-02T23:48:19.522Z,2.43
2024-02-02T23:50:46.640Z,2.53
2024-02-02T23:53:13.470Z,2.52
2024-02-02T23:55:40.208Z,2.44
2024-02-02T23:58:07.157Z,2.37
